createdAt,value
2022-07-29T00:00:46.760Z,3.40
2022-07-29T00:01:46.752Z,3.20
2022-07-29T00:02:46.770Z,3.20
2022-07-29T00:03:46.811Z,3.40
2022-07-29T00:04:46.728Z,3.40
2022-07-29T00:05:46.677Z,3.30
2022-07-29T00:06:46.686Z,3.40
2022-07-29T00:07:46.660Z,3.60
2022-07-29T00:08:46.635Z,3.50
2022-07-29T00:09:51.753Z,3.30
2022-07-29T00:10:47.640Z,3.30
2022-07-29T00:11:46.607Z,3.10
2022-07-29T00:12:46.596Z,3.60
2022-07-29T00:13:50.903Z,3.50
2022-07-29T00:14:46.573Z,3.50
2022-07-29T00:15:46.576Z,3.10
2022-07-29T00:16:46.619Z,3.60
2022-07-29T00:17:46.519Z,3.10
2022-07-29T00:18:46.527Z,3.30
2022-07-29T00:19:46.485Z,3.20
2022-07-29T00:20:46.486Z,3.20
2022-07-29T00:21:46.508Z,3.20
2022-07-29T00:22:46.450Z,3.30
2022-07-29T00:23:46.449Z,3.20
2022-07-29T00:24:46.436Z,3.10
2022-07-29T00:25:46.411Z,3.10
2022-07-29T00:26:46.417Z,3.30
2022-07-29T00:27:46.398Z,3.40
2022-07-29T00:28:46.365Z,3.30
2022-07-29T00:29:46.367Z,3.40
2022-07-29T00:30:46.353Z,3.30
2022-07-29T00:31:46.406Z,3.70
2022-07-29T00:32:46.302Z,3.00
2022-07-29T00:33:46.361Z,3.70
2022-07-29T00:34:46.287Z,3.20
2022-07-29T00:35:46.279Z,3.10
2022-07-29T00:36:46.267Z,3.00
2022-07-29T00:37:46.243Z,3.30
2022-07-29T00:38:46.234Z,3.10
2022-07-29T00:39:46.224Z,3.20
2022-07-29T00:40:46.217Z,3.20
2022-07-29T00:41:46.210Z,3.20
2022-07-29T00:42:46.173Z,3.40
2022-07-29T00:43:46.185Z,3.10
2022-07-29T00:44:46.169Z,3.30
2022-07-29T00:45:46.172Z,3.30
2022-07-29T00:46:46.161Z,3.10
2022-07-29T00:47:46.111Z,3.50
2022-07-29T00:48:46.191Z,3.30
2022-07-29T00:49:46.064Z,3.10
2022-07-29T00:50:46.071Z,3.30
2022-07-29T00:51:46.038Z,3.20
2022-07-29T00:52:46.042Z,3.20
2022-07-29T00:53:46.037Z,3.10
2022-07-29T00:54:46.001Z,3.10
2022-07-29T00:55:46.013Z,3.10
2022-07-29T00:56:46.033Z,3.30
2022-07-29T00:57:45.960Z,3.10
2022-07-29T00:58:45.974Z,3.00
2022-07-29T00:59:45.928Z,3.10
2022-07-29T01:00:45.990Z,3.20
2022-07-29T01:01:46.056Z,3.10
2022-07-29T01:02:45.957Z,3.20
2022-07-29T01:03:45.904Z,3.20
2022-07-29T01:04:45.896Z,3.20
2022-07-29T01:05:49.801Z,3.20
2022-07-29T01:06:46.868Z,3.20
2022-07-29T01:07:45.815Z,3.20
2022-07-29T01:08:45.834Z,3.60
2022-07-29T01:09:47.183Z,3.20
2022-07-29T01:10:45.815Z,3.30
2022-07-29T01:11:45.798Z,3.00
2022-07-29T01:12:45.784Z,3.20
2022-07-29T01:13:45.860Z,3.30
2022-07-29T01:14:45.753Z,3.30
2022-07-29T01:15:49.521Z,3.30
2022-07-29T01:16:45.769Z,3.20
2022-07-29T01:17:52.586Z,3.50
2022-07-29T01:18:46.840Z,3.30
2022-07-29T01:19:45.667Z,3.60
2022-07-29T01:20:45.674Z,3.50
2022-07-29T01:21:45.660Z,3.70
2022-07-29T01:22:45.614Z,3.10
2022-07-29T01:23:45.644Z,3.50
2022-07-29T01:24:45.646Z,3.50
2022-07-29T01:25:45.612Z,3.40
2022-07-29T01:26:45.598Z,3.50
2022-07-29T01:27:45.555Z,3.40
2022-07-29T01:28:45.565Z,3.50
2022-07-29T01:29:45.538Z,3.60
2022-07-29T01:30:45.646Z,3.70
2022-07-29T01:31:59.315Z,3.70
2022-07-29T01:32:46.506Z,3.70
2022-07-29T01:33:45.477Z,4.20
2022-07-29T01:34:45.468Z,4.30
2022-07-29T01:35:45.471Z,4.00
2022-07-29T01:36:45.551Z,4.10
2022-07-29T01:37:45.426Z,3.90
2022-07-29T01:38:45.422Z,4.10
2022-07-29T01:39:45.380Z,4.40
2022-07-29T01:40:45.391Z,4.90
2022-07-29T01:41:45.381Z,4.60
2022-07-29T01:42:45.390Z,4.40
2022-07-29T01:43:45.352Z,4.40
2022-07-29T01:44:45.344Z,4.30
2022-07-29T01:45:45.322Z,4.90
2022-07-29T01:46:45.415Z,4.70
2022-07-29T01:47:45.292Z,5.00
2022-07-29T01:48:45.315Z,4.90
2022-07-29T01:49:45.260Z,5.20
2022-07-29T01:50:45.267Z,5.60
2022-07-29T01:51:45.231Z,5.50
2022-07-29T01:52:46.284Z,6.30
2022-07-29T01:53:45.216Z,6.10
2022-07-29T01:54:46.696Z,6.30
2022-07-29T01:55:45.192Z,5.80
2022-07-29T01:56:45.187Z,5.60
2022-07-29T01:57:45.135Z,5.60
2022-07-29T01:58:45.172Z,5.90
2022-07-29T01:59:45.135Z,6.10
2022-07-29T02:00:45.127Z,5.90
2022-07-29T02:01:45.136Z,5.80
2022-07-29T02:02:45.081Z,6.00
2022-07-29T02:03:45.125Z,6.00
2022-07-29T02:04:45.091Z,6.00
2022-07-29T02:05:45.036Z,6.40
2022-07-29T02:06:45.069Z,6.70
2022-07-29T02:07:45.035Z,6.30
2022-07-29T02:08:45.007Z,6.10
2022-07-29T02:09:45.013Z,5.60
2022-07-29T02:10:45.003Z,6.40
2022-07-29T02:11:44.972Z,5.80
2022-07-29T02:12:48.547Z,6.00
2022-07-29T02:13:45.974Z,5.80
2022-07-29T02:14:45.014Z,6.50
2022-07-29T02:15:44.990Z,6.10
2022-07-29T02:16:44.890Z,5.80
2022-07-29T02:17:44.896Z,5.40
2022-07-29T02:18:44.861Z,5.80
2022-07-29T02:19:44.874Z,6.00
2022-07-29T02:20:44.856Z,6.10
2022-07-29T02:21:44.825Z,5.40
2022-07-29T02:22:44.813Z,5.50
2022-07-29T02:23:45.274Z,5.30
2022-07-29T02:24:45.797Z,5.10
2022-07-29T02:25:44.782Z,4.90
2022-07-29T02:26:44.872Z,4.90
2022-07-29T02:27:44.736Z,5.10
2022-07-29T02:28:44.717Z,5.30
2022-07-29T02:29:44.710Z,5.00
2022-07-29T02:30:44.749Z,5.30
2022-07-29T02:31:44.767Z,4.60
2022-07-29T02:32:44.679Z,5.10
2022-07-29T02:33:44.652Z,4.60
2022-07-29T02:34:44.664Z,4.70
2022-07-29T02:35:44.628Z,4.40
2022-07-29T02:36:45.319Z,4.50
2022-07-29T02:37:44.621Z,4.70
2022-07-29T02:38:44.604Z,4.70
2022-07-29T02:39:44.576Z,4.40
2022-07-29T02:40:44.569Z,4.40
2022-07-29T02:41:44.543Z,4.10
2022-07-29T02:42:44.641Z,4.30
2022-07-29T02:43:44.527Z,4.40
2022-07-29T02:44:44.519Z,4.10
2022-07-29T02:45:44.491Z,4.60
2022-07-29T02:46:44.518Z,4.30
2022-07-29T02:47:44.462Z,4.30
2022-07-29T02:48:44.549Z,4.20
2022-07-29T02:49:44.454Z,4.30
2022-07-29T02:50:44.431Z,4.50
2022-07-29T02:51:45.072Z,4.30
2022-07-29T02:52:44.416Z,3.80
2022-07-29T02:53:44.385Z,4.20
2022-07-29T02:54:44.384Z,4.40
2022-07-29T02:55:44.375Z,4.30
2022-07-29T02:56:44.369Z,4.40
2022-07-29T02:57:54.126Z,4.60
2022-07-29T02:58:45.335Z,4.40
2022-07-29T02:59:44.290Z,4.10
2022-07-29T03:00:44.295Z,4.30
2022-07-29T03:01:44.328Z,4.20
2022-07-29T03:02:44.278Z,4.50
2022-07-29T03:03:45.035Z,4.30
2022-07-29T03:04:44.263Z,4.40
2022-07-29T03:05:44.240Z,4.10
2022-07-29T03:06:44.222Z,4.10
2022-07-29T03:07:44.179Z,4.20
2022-07-29T03:08:44.862Z,4.50
2022-07-29T03:09:44.165Z,4.20
2022-07-29T03:10:44.371Z,3.90
2022-07-29T03:11:49.694Z,4.20
2022-07-29T03:12:45.136Z,4.40
2022-07-29T03:13:44.113Z,4.00
2022-07-29T03:14:44.098Z,3.90
2022-07-29T03:15:44.159Z,4.20
2022-07-29T03:16:44.182Z,4.20
2022-07-29T03:17:44.107Z,3.90
2022-07-29T03:18:44.055Z,3.80
2022-07-29T03:19:44.048Z,4.10
2022-07-29T03:20:44.013Z,3.80
2022-07-29T03:21:43.997Z,3.90
2022-07-29T03:22:43.999Z,3.80
2022-07-29T03:23:43.967Z,3.80
2022-07-29T03:24:43.946Z,3.60
2022-07-29T03:25:43.974Z,3.90
2022-07-29T03:26:43.955Z,3.90
2022-07-29T03:27:44.059Z,3.70
2022-07-29T03:28:43.917Z,3.80
2022-07-29T03:29:49.737Z,3.80
2022-07-29T03:30:44.917Z,4.00
2022-07-29T03:31:43.882Z,4.10
2022-07-29T03:32:43.871Z,3.60
2022-07-29T03:33:43.860Z,3.80
2022-07-29T03:34:43.823Z,3.60
2022-07-29T03:35:43.809Z,3.50
2022-07-29T03:36:43.792Z,3.70
2022-07-29T03:37:43.811Z,4.00
2022-07-29T03:38:43.771Z,3.50
2022-07-29T03:39:43.804Z,3.50
2022-07-29T03:40:43.877Z,3.70
2022-07-29T03:41:44.452Z,3.80
2022-07-29T03:42:43.714Z,3.90
2022-07-29T03:43:49.557Z,3.40
2022-07-29T03:44:44.738Z,3.50
2022-07-29T03:45:43.678Z,3.90
2022-07-29T03:46:43.734Z,3.50
2022-07-29T03:47:50.242Z,3.60
2022-07-29T03:48:44.711Z,3.60
2022-07-29T03:49:43.638Z,3.70
2022-07-29T03:50:43.625Z,3.80
2022-07-29T03:51:43.608Z,3.70
2022-07-29T03:52:43.580Z,3.60
2022-07-29T03:53:43.584Z,3.60
2022-07-29T03:54:43.561Z,4.10
2022-07-29T03:55:43.536Z,3.70
2022-07-29T03:56:43.712Z,3.80
2022-07-29T03:57:43.549Z,3.60
2022-07-29T03:58:43.520Z,3.80
2022-07-29T03:59:43.497Z,3.80
2022-07-29T04:00:43.470Z,3.60
2022-07-29T04:01:43.535Z,3.80
2022-07-29T04:02:43.447Z,3.70
2022-07-29T04:03:43.495Z,3.70
2022-07-29T04:04:43.423Z,3.60
2022-07-29T04:05:43.406Z,3.60
2022-07-29T04:06:43.410Z,3.70
2022-07-29T04:07:43.495Z,3.80
2022-07-29T04:08:43.361Z,3.80
2022-07-29T04:09:43.374Z,3.80
2022-07-29T04:10:43.401Z,3.80
2022-07-29T04:12:03.224Z,3.80
2022-07-29T04:12:44.323Z,3.80
2022-07-29T04:13:43.423Z,3.60
2022-07-29T04:14:43.293Z,3.60
2022-07-29T04:15:43.341Z,3.80
2022-07-29T04:16:43.245Z,3.50
2022-07-29T04:17:44.221Z,3.90
2022-07-29T04:18:43.242Z,3.80
2022-07-29T04:19:43.228Z,3.40
2022-07-29T04:20:43.219Z,3.60
2022-07-29T04:21:43.175Z,3.80
2022-07-29T04:22:43.199Z,3.90
2022-07-29T04:23:52.771Z,3.90
2022-07-29T04:24:44.646Z,3.60
2022-07-29T04:25:43.191Z,3.50
2022-07-29T04:26:43.130Z,3.70
2022-07-29T04:27:43.123Z,3.60
2022-07-29T04:28:43.087Z,4.10
2022-07-29T04:29:56.772Z,3.60
2022-07-29T04:30:44.120Z,3.40
2022-07-29T04:31:43.123Z,3.90
2022-07-29T04:32:43.057Z,3.60
2022-07-29T04:33:43.013Z,3.80
2022-07-29T04:34:43.010Z,3.90
2022-07-29T04:35:49.838Z,4.00
2022-07-29T04:36:43.975Z,3.60
2022-07-29T04:37:42.986Z,3.60
2022-07-29T04:38:42.933Z,3.50
2022-07-29T04:39:42.946Z,3.80
2022-07-29T04:40:42.937Z,3.70
2022-07-29T04:41:43.008Z,3.30
2022-07-29T04:42:46.860Z,3.90
2022-07-29T04:43:43.900Z,3.70
2022-07-29T04:44:43.255Z,3.60
2022-07-29T04:45:42.860Z,3.60
2022-07-29T04:46:42.892Z,3.80
2022-07-29T04:47:42.948Z,3.90
2022-07-29T04:48:42.822Z,3.40
2022-07-29T04:49:42.830Z,3.60
2022-07-29T04:50:42.786Z,3.70
2022-07-29T04:51:42.828Z,3.80
2022-07-29T04:52:42.776Z,3.70
2022-07-29T04:53:42.768Z,3.70
2022-07-29T04:54:42.726Z,4.00
2022-07-29T04:55:42.710Z,3.90
2022-07-29T04:56:42.714Z,3.80
2022-07-29T04:57:42.723Z,3.70
2022-07-29T04:58:42.661Z,3.60
2022-07-29T04:59:42.676Z,3.40
2022-07-29T05:00:42.665Z,3.80
2022-07-29T05:01:42.724Z,3.90
2022-07-29T05:02:42.684Z,3.90
2022-07-29T05:03:43.296Z,3.50
2022-07-29T05:04:42.621Z,3.60
2022-07-29T05:05:42.574Z,3.60
2022-07-29T05:06:42.582Z,3.60
2022-07-29T05:07:42.555Z,3.80
2022-07-29T05:08:42.540Z,3.70
2022-07-29T05:09:42.547Z,3.80
2022-07-29T05:10:42.634Z,3.60
2022-07-29T05:11:42.551Z,3.70
2022-07-29T05:12:42.516Z,4.00
2022-07-29T05:13:45.860Z,3.70
2022-07-29T05:14:42.493Z,3.70
2022-07-29T05:15:42.485Z,3.60
2022-07-29T05:16:42.439Z,3.80
2022-07-29T05:17:42.433Z,3.50
2022-07-29T05:18:43.415Z,3.30
2022-07-29T05:19:42.410Z,3.50
2022-07-29T05:20:42.392Z,3.70
2022-07-29T05:21:42.420Z,3.70
2022-07-29T05:22:43.096Z,3.80
2022-07-29T05:23:42.349Z,3.80
2022-07-29T05:24:42.320Z,3.70
2022-07-29T05:25:44.662Z,3.50
2022-07-29T05:26:42.342Z,3.40
2022-07-29T05:27:42.412Z,3.50
2022-07-29T05:28:42.355Z,3.70
2022-07-29T05:29:44.390Z,3.60
2022-07-29T05:30:42.306Z,3.50
2022-07-29T05:31:42.311Z,3.70
2022-07-29T05:32:42.249Z,3.60
2022-07-29T05:33:42.275Z,3.50
2022-07-29T05:34:51.279Z,3.60
2022-07-29T05:35:43.186Z,3.50
2022-07-29T05:36:42.157Z,3.80
2022-07-29T05:37:42.170Z,3.40
2022-07-29T05:38:42.147Z,3.70
2022-07-29T05:39:48.649Z,3.70
2022-07-29T05:40:43.130Z,3.50
2022-07-29T05:41:42.088Z,3.50
2022-07-29T05:42:43.053Z,3.50
2022-07-29T05:43:42.091Z,3.60
2022-07-29T05:44:42.167Z,3.50
2022-07-29T05:45:49.990Z,3.60
2022-07-29T05:46:43.042Z,3.60
2022-07-29T05:47:42.034Z,3.50
2022-07-29T05:48:42.049Z,3.50
2022-07-29T05:49:42.662Z,3.50
2022-07-29T05:50:44.408Z,3.50
2022-07-29T05:51:41.977Z,3.60
2022-07-29T05:52:41.969Z,3.90
2022-07-29T05:53:41.939Z,3.60
2022-07-29T05:54:41.936Z,3.40
2022-07-29T05:55:41.947Z,3.90
2022-07-29T05:56:41.887Z,3.50
2022-07-29T05:57:41.895Z,3.60
2022-07-29T05:58:41.862Z,3.60
2022-07-29T05:59:41.866Z,3.40
2022-07-29T06:00:41.853Z,3.80
2022-07-29T06:01:41.967Z,3.60
2022-07-29T06:02:41.815Z,3.60
2022-07-29T06:03:41.793Z,3.60
2022-07-29T06:04:41.835Z,4.20
2022-07-29T06:05:41.767Z,3.50
2022-07-29T06:06:41.749Z,3.70
2022-07-29T06:07:41.745Z,3.60
2022-07-29T06:08:42.727Z,4.00
2022-07-29T06:09:41.729Z,4.00
2022-07-29T06:10:41.696Z,3.90
2022-07-29T06:11:41.710Z,3.60
2022-07-29T06:12:41.824Z,4.00
2022-07-29T06:13:41.658Z,3.70
2022-07-29T06:14:41.662Z,3.70
2022-07-29T06:15:41.736Z,3.50
2022-07-29T06:16:41.684Z,4.00
2022-07-29T06:18:00.806Z,3.40
2022-07-29T06:18:42.611Z,3.60
2022-07-29T06:19:41.594Z,4.00
2022-07-29T06:20:42.525Z,3.60
2022-07-29T06:21:42.184Z,3.50
2022-07-29T06:22:41.555Z,4.20
2022-07-29T06:23:41.533Z,3.90
2022-07-29T06:24:41.623Z,3.70
2022-07-29T06:25:41.524Z,3.70
2022-07-29T06:26:41.494Z,3.90
2022-07-29T06:27:41.536Z,4.00
2022-07-29T06:28:41.478Z,4.00
2022-07-29T06:29:41.482Z,3.90
2022-07-29T06:30:41.512Z,3.80
2022-07-29T06:31:41.425Z,3.60
2022-07-29T06:32:43.247Z,3.40
2022-07-29T06:33:41.410Z,3.70
2022-07-29T06:34:41.376Z,3.60
2022-07-29T06:35:44.704Z,3.80
2022-07-29T06:36:42.382Z,3.70
2022-07-29T06:37:41.349Z,3.50
2022-07-29T06:38:44.867Z,4.00
2022-07-29T06:39:42.353Z,4.00
2022-07-29T06:40:41.303Z,4.10
2022-07-29T06:41:41.314Z,3.50
2022-07-29T06:42:41.296Z,3.40
2022-07-29T06:43:52.450Z,3.50
2022-07-29T06:44:42.253Z,3.60
2022-07-29T06:45:41.340Z,3.80
2022-07-29T06:46:41.267Z,3.90
2022-07-29T06:47:41.245Z,4.30
2022-07-29T06:48:41.275Z,3.60
2022-07-29T06:49:41.221Z,3.60
2022-07-29T06:50:41.184Z,3.80
2022-07-29T06:51:41.181Z,3.60
2022-07-29T06:52:41.187Z,3.50
2022-07-29T06:54:00.582Z,3.80
2022-07-29T06:54:42.126Z,3.80
2022-07-29T06:55:41.114Z,4.10
2022-07-29T06:56:41.093Z,3.30
2022-07-29T06:57:41.091Z,3.40
2022-07-29T06:58:41.086Z,3.30
2022-07-29T06:59:41.061Z,3.20
2022-07-29T07:00:41.030Z,3.50
2022-07-29T07:01:41.101Z,3.10
2022-07-29T07:02:41.063Z,3.40
2022-07-29T07:03:40.997Z,3.20
2022-07-29T07:04:40.978Z,3.00
2022-07-29T07:05:40.979Z,3.30
2022-07-29T07:06:40.953Z,3.20
2022-07-29T07:07:40.951Z,3.20
2022-07-29T07:08:40.938Z,3.10
2022-07-29T07:09:41.121Z,3.40
2022-07-29T07:10:40.901Z,3.20
2022-07-29T07:11:40.892Z,3.30
2022-07-29T07:12:40.863Z,3.30
2022-07-29T07:13:40.831Z,3.70
2022-07-29T07:14:40.824Z,2.90
2022-07-29T07:15:40.830Z,3.30
2022-07-29T07:16:40.834Z,3.40
2022-07-29T07:17:40.787Z,3.00
2022-07-29T07:18:40.866Z,3.60
2022-07-29T07:19:40.762Z,3.40
2022-07-29T07:20:40.738Z,3.30
2022-07-29T07:21:40.713Z,3.00
2022-07-29T07:22:40.711Z,2.90
2022-07-29T07:23:40.683Z,3.10
2022-07-29T07:24:40.664Z,3.20
2022-07-29T07:25:40.676Z,3.20
2022-07-29T07:26:40.665Z,3.10
2022-07-29T07:27:40.625Z,2.80
2022-07-29T07:28:40.616Z,3.80
2022-07-29T07:29:40.617Z,2.90
2022-07-29T07:30:40.594Z,2.90
2022-07-29T07:31:40.774Z,3.00
2022-07-29T07:32:40.579Z,2.90
2022-07-29T07:33:40.549Z,3.40
2022-07-29T07:34:40.550Z,3.10
2022-07-29T07:35:40.522Z,3.10
2022-07-29T07:36:40.516Z,2.80
2022-07-29T07:37:40.532Z,2.80
2022-07-29T07:38:40.480Z,3.00
2022-07-29T07:39:40.482Z,2.90
2022-07-29T07:40:40.466Z,2.90
2022-07-29T07:41:40.440Z,3.10
2022-07-29T07:42:40.452Z,2.80
2022-07-29T07:43:40.432Z,2.80
2022-07-29T07:45:03.821Z,3.00
2022-07-29T07:45:41.463Z,2.60
2022-07-29T07:46:40.396Z,2.80
2022-07-29T07:47:40.362Z,2.90
2022-07-29T07:48:40.481Z,2.80
2022-07-29T07:49:41.057Z,3.10
2022-07-29T07:50:40.329Z,3.00
2022-07-29T07:51:40.328Z,3.00
2022-07-29T07:52:40.319Z,2.80
2022-07-29T07:53:40.277Z,2.70
2022-07-29T07:54:40.398Z,2.90
2022-07-29T07:56:08.880Z,2.80
2022-07-29T07:56:41.257Z,2.80
2022-07-29T07:57:40.239Z,3.00
2022-07-29T07:58:40.300Z,2.80
2022-07-29T07:59:40.207Z,2.90
2022-07-29T08:00:40.226Z,3.20
2022-07-29T08:01:48.415Z,3.20
2022-07-29T08:02:41.223Z,3.00
2022-07-29T08:03:40.198Z,2.90
2022-07-29T08:04:40.160Z,2.70
2022-07-29T08:05:40.119Z,3.00
2022-07-29T08:06:40.124Z,3.40
2022-07-29T08:07:40.109Z,2.80
2022-07-29T08:08:40.091Z,3.20
2022-07-29T08:09:40.073Z,2.70
2022-07-29T08:10:40.055Z,2.90
2022-07-29T08:11:40.058Z,3.00
2022-07-29T08:12:41.036Z,3.10
2022-07-29T08:13:40.011Z,3.60
2022-07-29T08:14:40.007Z,2.80
2022-07-29T08:15:39.989Z,2.80
2022-07-29T08:16:40.009Z,2.80
2022-07-29T08:17:39.956Z,2.50
2022-07-29T08:18:39.959Z,2.60
2022-07-29T08:19:39.927Z,2.90
2022-07-29T08:20:39.945Z,2.80
2022-07-29T08:21:39.951Z,2.80
2022-07-29T08:22:40.848Z,2.60
2022-07-29T08:23:46.101Z,2.60
2022-07-29T08:24:40.894Z,2.60
2022-07-29T08:25:40.156Z,2.80
2022-07-29T08:26:39.851Z,2.90
2022-07-29T08:27:44.232Z,2.60
2022-07-29T08:28:39.810Z,2.40
2022-07-29T08:29:39.823Z,2.60
2022-07-29T08:30:39.780Z,2.60
2022-07-29T08:31:39.807Z,2.80
2022-07-29T08:32:56.114Z,2.50
2022-07-29T08:33:40.760Z,2.90
2022-07-29T08:34:39.747Z,2.50
2022-07-29T08:35:39.801Z,2.20
2022-07-29T08:36:39.706Z,2.30
2022-07-29T08:37:39.696Z,2.40
2022-07-29T08:38:39.676Z,2.60
2022-07-29T08:39:39.798Z,2.90
2022-07-29T08:40:39.667Z,2.40
2022-07-29T08:41:39.634Z,2.50
2022-07-29T08:42:39.640Z,2.70
2022-07-29T08:43:39.605Z,2.50
2022-07-29T08:44:39.604Z,2.70
2022-07-29T08:45:39.691Z,2.60
2022-07-29T08:46:40.591Z,2.80
2022-07-29T08:47:39.551Z,2.60
2022-07-29T08:48:39.630Z,2.70
2022-07-29T08:49:39.554Z,3.00
2022-07-29T08:50:39.567Z,2.90
2022-07-29T08:51:49.396Z,2.40
2022-07-29T08:52:40.532Z,2.70
2022-07-29T08:53:39.492Z,2.60
2022-07-29T08:54:39.512Z,2.70
2022-07-29T08:55:39.481Z,3.00
2022-07-29T08:56:39.482Z,2.60
2022-07-29T08:57:39.455Z,2.60
2022-07-29T08:58:40.442Z,2.70
2022-07-29T08:59:39.436Z,2.50
2022-07-29T09:00:39.442Z,2.60
2022-07-29T09:01:42.925Z,2.70
2022-07-29T09:02:40.514Z,3.00
2022-07-29T09:03:39.445Z,2.60
2022-07-29T09:04:39.378Z,2.80
2022-07-29T09:05:42.024Z,2.90
2022-07-29T09:06:39.332Z,2.90
2022-07-29T09:07:39.307Z,2.70
2022-07-29T09:08:39.306Z,3.00
2022-07-29T09:09:39.310Z,2.70
2022-07-29T09:10:39.278Z,2.70
2022-07-29T09:11:39.286Z,2.70
2022-07-29T09:12:39.354Z,2.90
2022-07-29T09:13:39.438Z,2.80
2022-07-29T09:14:39.232Z,2.60
2022-07-29T09:15:39.222Z,2.90
2022-07-29T09:16:52.700Z,2.80
2022-07-29T09:17:40.219Z,2.60
2022-07-29T09:18:39.183Z,2.90
2022-07-29T09:19:39.181Z,2.80
2022-07-29T09:20:40.161Z,2.60
2022-07-29T09:21:39.156Z,2.70
2022-07-29T09:22:42.013Z,2.70
2022-07-29T09:23:39.136Z,2.70
2022-07-29T09:24:39.122Z,2.50
2022-07-29T09:25:39.182Z,2.70
2022-07-29T09:26:39.088Z,3.10
2022-07-29T09:27:39.045Z,2.60
2022-07-29T09:28:39.054Z,2.60
2022-07-29T09:29:39.050Z,2.70
2022-07-29T09:30:39.027Z,2.70
2022-07-29T09:31:39.063Z,2.80
2022-07-29T09:32:38.999Z,3.10
2022-07-29T09:33:38.987Z,2.60
2022-07-29T09:34:38.992Z,2.60
2022-07-29T09:35:38.959Z,2.60
2022-07-29T09:36:39.049Z,2.90
2022-07-29T09:37:38.965Z,2.90
2022-07-29T09:38:38.925Z,2.80
2022-07-29T09:39:38.931Z,2.70
2022-07-29T09:40:38.939Z,2.80
2022-07-29T09:41:38.881Z,2.90
2022-07-29T09:42:39.004Z,2.80
2022-07-29T09:43:38.972Z,2.60
2022-07-29T09:44:38.999Z,2.90
2022-07-29T09:45:38.953Z,2.80
2022-07-29T09:46:38.925Z,3.00
2022-07-29T09:47:38.885Z,2.80
2022-07-29T09:48:39.040Z,2.70
2022-07-29T09:49:38.852Z,3.00
2022-07-29T09:50:38.766Z,3.10
2022-07-29T09:51:39.015Z,3.10
2022-07-29T09:52:38.763Z,2.90
2022-07-29T09:53:38.713Z,3.20
2022-07-29T09:54:38.726Z,3.40
2022-07-29T09:55:38.750Z,2.50
2022-07-29T09:56:38.805Z,2.90
2022-07-29T09:57:38.689Z,2.80
2022-07-29T09:58:38.672Z,3.10
2022-07-29T09:59:50.322Z,2.90
2022-07-29T10:00:39.673Z,2.80
2022-07-29T10:01:38.613Z,3.20
2022-07-29T10:02:38.611Z,3.50
2022-07-29T10:03:38.674Z,3.40
2022-07-29T10:04:38.594Z,2.80
2022-07-29T10:05:38.687Z,2.70
2022-07-29T10:06:38.572Z,3.40
2022-07-29T10:07:38.537Z,2.90
2022-07-29T10:08:38.540Z,2.80
2022-07-29T10:09:38.521Z,2.70
2022-07-29T10:10:38.544Z,2.80
2022-07-29T10:11:49.531Z,2.60
2022-07-29T10:12:39.519Z,2.80
2022-07-29T10:13:38.482Z,2.70
2022-07-29T10:14:38.471Z,3.30
2022-07-29T10:15:38.432Z,3.10
2022-07-29T10:16:38.482Z,2.70
2022-07-29T10:17:41.708Z,2.40
2022-07-29T10:18:38.391Z,2.80
2022-07-29T10:19:38.398Z,2.40
2022-07-29T10:20:38.383Z,2.80
2022-07-29T10:21:38.345Z,2.90
2022-07-29T10:22:54.240Z,2.70
2022-07-29T10:23:46.094Z,2.30
2022-07-29T10:24:39.328Z,2.60
2022-07-29T10:25:38.295Z,2.90
2022-07-29T10:26:38.338Z,2.70
2022-07-29T10:27:38.266Z,2.40
2022-07-29T10:28:38.282Z,2.70
2022-07-29T10:29:38.262Z,3.10
2022-07-29T10:30:38.237Z,2.90
2022-07-29T10:31:38.292Z,2.40
2022-07-29T10:32:38.229Z,2.50
2022-07-29T10:33:38.222Z,2.40
2022-07-29T10:34:38.192Z,2.40
2022-07-29T10:35:38.189Z,2.50
2022-07-29T10:36:38.159Z,2.60
2022-07-29T10:37:38.166Z,2.50
2022-07-29T10:38:39.250Z,2.40
2022-07-29T10:39:44.608Z,2.80
2022-07-29T10:41:44.221Z,2.80
2022-07-29T10:42:39.094Z,2.30
2022-07-29T10:43:38.064Z,5.60
2022-07-29T10:44:38.053Z,4.10
2022-07-29T10:45:38.087Z,2.50
2022-07-29T10:46:38.087Z,2.50
2022-07-29T10:47:37.998Z,2.50
2022-07-29T10:48:38.042Z,2.50
2022-07-29T10:49:38.028Z,2.40
2022-07-29T10:50:37.962Z,2.50
2022-07-29T10:51:37.926Z,2.60
2022-07-29T10:52:38.108Z,2.50
2022-07-29T10:53:37.949Z,2.40
2022-07-29T10:54:42.567Z,3.00
2022-07-29T10:55:37.913Z,2.70
2022-07-29T10:56:37.895Z,2.60
2022-07-29T10:57:52.713Z,2.60
2022-07-29T10:58:38.861Z,2.30
2022-07-29T10:59:37.858Z,2.50
2022-07-29T11:00:37.856Z,2.70
2022-07-29T11:01:39.236Z,2.90
2022-07-29T11:02:42.718Z,2.80
2022-07-29T11:03:38.851Z,2.50
2022-07-29T11:04:37.795Z,2.90
2022-07-29T11:05:40.640Z,2.70
2022-07-29T11:06:37.739Z,2.30
2022-07-29T11:07:41.611Z,2.50
2022-07-29T11:08:38.746Z,2.30
2022-07-29T11:09:38.553Z,2.40
2022-07-29T11:10:37.698Z,2.30
2022-07-29T11:11:37.838Z,2.20
2022-07-29T11:12:37.692Z,2.40
2022-07-29T11:13:41.376Z,2.50
2022-07-29T11:14:37.666Z,2.60
2022-07-29T11:15:37.639Z,6.30
2022-07-29T11:16:37.634Z,4.30
2022-07-29T11:17:52.149Z,3.30
2022-07-29T11:18:38.590Z,2.40
2022-07-29T11:19:40.178Z,2.30
2022-07-29T11:20:37.819Z,2.40
2022-07-29T11:21:53.732Z,2.70
2022-07-29T11:22:42.972Z,3.10
2022-07-29T11:23:38.501Z,2.50
2022-07-29T11:24:37.492Z,2.70
2022-07-29T11:25:50.252Z,2.80
2022-07-29T11:26:38.485Z,2.60
2022-07-29T11:27:37.451Z,2.50
2022-07-29T11:28:37.471Z,2.50
2022-07-29T11:30:38.413Z,4.00
2022-07-29T11:31:37.413Z,3.10
2022-07-29T11:32:37.407Z,2.60
2022-07-29T11:33:55.888Z,3.00
2022-07-29T11:34:38.389Z,4.30
2022-07-29T11:35:39.853Z,3.70
2022-07-29T11:36:37.347Z,3.50
2022-07-29T11:37:45.809Z,3.40
2022-07-29T11:38:38.346Z,5.00
2022-07-29T11:39:37.779Z,3.10
2022-07-29T11:40:37.319Z,2.50
2022-07-29T11:41:37.323Z,2.30
2022-07-29T11:42:37.254Z,2.50
2022-07-29T11:43:37.254Z,2.50
2022-07-29T11:44:37.252Z,2.20
2022-07-29T11:45:42.624Z,3.40
2022-07-29T11:46:38.222Z,4.30
2022-07-29T11:48:38.198Z,3.30
2022-07-29T11:49:37.195Z,3.20
2022-07-29T11:50:37.296Z,2.80
2022-07-29T11:51:38.183Z,3.80
2022-07-29T11:52:38.146Z,3.10
2022-07-29T11:53:38.135Z,3.00
2022-07-29T11:54:52.267Z,3.20
2022-07-29T11:55:38.208Z,4.90
2022-07-29T11:56:38.077Z,5.20
2022-07-29T11:57:37.394Z,3.40
2022-07-29T11:58:37.066Z,3.10
2022-07-29T11:59:37.026Z,3.20
2022-07-29T12:00:37.025Z,2.60
2022-07-29T12:01:37.242Z,3.40
2022-07-29T12:02:38.321Z,2.70
2022-07-29T12:03:37.332Z,2.20
2022-07-29T12:04:36.984Z,2.90
2022-07-29T12:05:37.184Z,2.60
2022-07-29T12:06:36.957Z,2.70
2022-07-29T12:07:36.935Z,5.20
2022-07-29T12:08:36.912Z,5.10
2022-07-29T12:09:40.098Z,4.50
2022-07-29T12:10:36.890Z,3.30
2022-07-29T12:11:36.904Z,2.50
2022-07-29T12:12:36.880Z,2.70
2022-07-29T12:13:37.435Z,2.50
2022-07-29T12:14:36.836Z,2.80
2022-07-29T12:15:45.617Z,2.90
2022-07-29T12:16:37.916Z,2.20
2022-07-29T12:17:36.860Z,5.30
2022-07-29T12:18:36.826Z,5.50
2022-07-29T12:19:36.779Z,11.70
2022-07-29T12:20:36.763Z,8.10
2022-07-29T12:21:36.765Z,3.80
2022-07-29T12:22:37.755Z,2.90
2022-07-29T12:23:36.739Z,2.60
2022-07-29T12:24:36.730Z,2.50
2022-07-29T12:25:36.692Z,2.70
2022-07-29T12:26:36.696Z,2.40
2022-07-29T12:27:36.661Z,3.10
2022-07-29T12:28:36.761Z,4.00
2022-07-29T12:29:36.642Z,5.10
2022-07-29T12:30:36.624Z,3.60
2022-07-29T12:31:42.337Z,3.40
2022-07-29T12:32:37.608Z,3.60
2022-07-29T12:33:36.612Z,3.10
2022-07-29T12:34:36.671Z,2.70
2022-07-29T12:35:36.577Z,2.80
2022-07-29T12:36:36.537Z,2.40
2022-07-29T12:37:41.377Z,2.50
2022-07-29T12:38:37.528Z,2.70
2022-07-29T12:39:36.515Z,2.70
2022-07-29T12:40:36.605Z,2.50
2022-07-29T12:41:36.491Z,2.20
2022-07-29T12:42:36.467Z,2.30
2022-07-29T12:43:36.460Z,3.20
2022-07-29T12:44:36.440Z,5.00
2022-07-29T12:45:36.432Z,3.90
2022-07-29T12:46:36.476Z,2.90
2022-07-29T12:47:36.404Z,3.30
2022-07-29T12:48:36.368Z,3.70
2022-07-29T12:49:38.016Z,2.40
2022-07-29T12:50:36.341Z,2.60
2022-07-29T12:51:36.473Z,3.70
2022-07-29T12:52:36.344Z,3.90
2022-07-29T12:53:36.320Z,5.10
2022-07-29T12:54:36.306Z,8.10
2022-07-29T12:55:36.292Z,6.00
2022-07-29T12:56:44.792Z,6.60
2022-07-29T12:57:37.407Z,4.20
2022-07-29T12:58:36.245Z,4.50
2022-07-29T12:59:36.257Z,3.10
2022-07-29T13:00:36.288Z,2.90
2022-07-29T13:01:36.215Z,2.90
2022-07-29T13:02:37.601Z,2.70
2022-07-29T13:03:36.301Z,2.60
2022-07-29T13:04:36.171Z,2.70
2022-07-29T13:05:36.156Z,2.60
2022-07-29T13:06:36.145Z,2.50
2022-07-29T13:07:54.139Z,2.70
2022-07-29T13:08:37.146Z,2.70
2022-07-29T13:09:36.125Z,2.80
2022-07-29T13:10:36.094Z,2.80
2022-07-29T13:11:36.095Z,2.40
2022-07-29T13:12:36.076Z,3.10
2022-07-29T13:13:36.051Z,3.00
2022-07-29T13:14:36.209Z,2.80
2022-07-29T13:15:36.204Z,3.00
2022-07-29T13:16:36.244Z,2.70
2022-07-29T13:17:36.191Z,2.90
2022-07-29T13:18:36.165Z,2.70
2022-07-29T13:19:36.027Z,2.90
2022-07-29T13:20:36.165Z,2.70
2022-07-29T13:21:35.974Z,2.70